Time;durP1;ratioP1;P1;durP2;ratioP2;P2;SDS_P1;SDS_P2;PMS_P1;PMS_P2;Temp;Humidity;BMP_temperature;BMP_pressure;BME280_temperature;BME280_humidity;BME280_pressure;Samples;Min_cycle;Max_cycle;Signal;HPM_P1;HPM_P2
2021/05/08 00:01:30;;;;;;;4.32;3.28;;;;;;;2.69;72.06;99640.19;5015424;28;20052;-62
2021/05/08 00:03:56;;;;;;;5.07;3.50;;;;;;;2.59;72.51;99644.94;5015730;28;20041;-61
2021/05/08 00:06:21;;;;;;;9.80;3.75;;;;;;;2.58;72.35;99641.47;5015370;28;20092;-61
2021/05/08 00:08:46;;;;;;;5.35;3.80;;;;;;;2.58;72.67;99644.13;5015621;28;20511;-62
2021/05/08 00:11:12;;;;;;;6.63;3.70;;;;;;;2.47;73.25;99635.78;5014839;28;20038;-62
2021/05/08 00:13:37;;;;;;;5.85;3.67;;;;;;;2.52;73.10;99639.56;5015746;28;20042;-61
2021/05/08 00:16:03;;;;;;;4.95;3.50;;;;;;;2.51;72.85;99639.72;5015242;28;20088;-62
2021/05/08 00:18:28;;;;;;;6.78;3.67;;;;;;;2.38;73.47;99637.69;5015581;28;20057;-61
2021/05/08 00:20:54;;;;;;;7.53;3.72;;;;;;;2.44;73.40;99644.09;5014161;28;20056;-62
2021/05/08 00:23:19;;;;;;;5.00;3.72;;;;;;;2.44;73.98;99633.50;5015727;28;20034;-62
2021/05/08 00:25:45;;;;;;;8.45;4.00;;;;;;;2.49;73.33;99639.09;5014985;28;20096;-62
2021/05/08 00:28:10;;;;;;;5.75;3.70;;;;;;;2.47;73.51;99634.00;5015384;28;20412;-61
2021/05/08 00:30:35;;;;;;;6.38;4.13;;;;;;;2.52;74.09;99628.13;5014907;28;20050;-62
2021/05/08 00:33:01;;;;;;;5.90;3.92;;;;;;;2.47;73.93;99625.22;5015267;28;20026;-62
2021/05/08 00:35:26;;;;;;;5.80;4.05;;;;;;;2.49;73.75;99625.84;5015017;28;20034;-62
2021/05/08 00:37:52;;;;;;;8.35;4.35;;;;;;;2.21;74.80;99621.16;5015322;28;20033;-62
2021/05/08 00:40:17;;;;;;;4.90;3.65;;;;;;;2.04;75.34;99630.22;5014652;28;20388;-61
2021/05/08 00:42:42;;;;;;;9.25;3.80;;;;;;;1.69;76.91;99627.97;5015131;28;20026;-62
2021/05/08 00:45:08;;;;;;;5.45;4.03;;;;;;;1.60;78.67;99622.91;5014534;28;20037;-61
2021/05/08 00:47:38;;;;;;;7.55;4.28;;;;;;;1.34;79.88;99624.03;5015057;28;20058;-62
2021/05/08 00:50:04;;;;;;;6.97;4.38;;;;;;;1.13;80.11;99615.91;4997158;28;20388;-61
2021/05/08 00:52:29;;;;;;;5.32;3.85;;;;;;;1.41;78.52;99614.44;5015235;28;20475;-61
2021/05/08 00:54:54;;;;;;;6.20;4.18;;;;;;;1.75;77.59;99613.25;4997505;28;20025;-61
2021/05/08 00:57:20;;;;;;;8.43;4.40;;;;;;;1.76;77.32;99611.44;5014366;28;20034;-61
2021/05/08 00:59:46;;;;;;;9.85;4.50;;;;;;;1.57;77.87;99612.69;4981029;28;20361;-62
2021/05/08 01:02:11;;;;;;;7.47;4.50;;;;;;;1.53;78.07;99614.88;5014193;28;20029;-61
2021/05/08 01:04:36;;;;;;;7.45;4.55;;;;;;;1.62;78.55;99613.00;4997361;28;20380;-61
2021/05/08 01:07:02;;;;;;;5.55;4.07;;;;;;;1.55;78.19;99606.75;4996794;28;20038;-61
2021/05/08 01:09:28;;;;;;;6.95;4.78;;;;;;;1.72;77.54;99600.38;5014054;28;20121;-61
2021/05/08 01:11:53;;;;;;;7.38;4.43;;;;;;;1.61;78.15;99614.00;5013018;28;20405;-61
2021/05/08 01:14:18;;;;;;;8.07;4.50;;;;;;;1.57;79.84;99605.59;4996937;28;20030;-61
2021/05/08 01:16:44;;;;;;;6.80;4.30;;;;;;;1.47;78.05;99608.47;5012636;28;20042;-61
2021/05/08 01:19:12;;;;;;;5.85;4.18;;;;;;;1.27;79.11;99601.97;5014411;28;20041;-61
2021/05/08 01:21:37;;;;;;;7.80;5.00;;;;;;;1.24;78.88;99608.41;4995491;28;20484;-62
2021/05/08 01:24:04;;;;;;;6.18;4.55;;;;;;;1.14;78.09;99604.34;5014085;28;20030;-65
2021/05/08 01:26:29;;;;;;;5.93;4.47;;;;;;;1.00;79.62;99596.16;5013740;28;20034;-61
2021/05/08 01:28:55;;;;;;;5.90;4.38;;;;;;;1.00;80.67;99597.97;5014148;28;20052;-61
2021/05/08 01:31:20;;;;;;;7.05;4.50;;;;;;;0.99;80.01;99598.97;5013555;28;20396;-61
2021/05/08 01:33:46;;;;;;;6.80;4.65;;;;;;;0.95;80.00;99597.66;5014082;28;20033;-60
2021/05/08 01:36:11;;;;;;;5.40;4.20;;;;;;;0.86;80.87;99588.97;5013495;28;20038;-60
2021/05/08 01:38:37;;;;;;;8.60;5.15;;;;;;;0.78;80.54;99583.72;5014369;28;20025;-61
2021/05/08 01:41:05;;;;;;;8.38;4.80;;;;;;;0.82;80.71;99592.91;5013487;28;20469;-60
2021/05/08 01:43:30;;;;;;;6.22;4.57;;;;;;;0.83;79.82;99589.31;5013946;28;20103;-60
2021/05/08 01:45:55;;;;;;;6.70;4.10;;;;;;;0.68;79.87;99596.28;5013444;28;20485;-60
2021/05/08 01:48:21;;;;;;;6.47;4.32;;;;;;;0.62;79.96;99587.22;5014193;28;20032;-62
2021/05/08 01:50:47;;;;;;;6.03;4.53;;;;;;;0.52;82.07;99587.41;5013690;28;20415;-62
2021/05/08 01:53:12;;;;;;;8.50;4.45;;;;;;;0.52;80.90;99582.13;4996370;28;20479;-62
2021/05/08 01:55:38;;;;;;;6.28;4.40;;;;;;;0.59;81.00;99583.09;5013379;28;20046;-62
2021/05/08 01:58:03;;;;;;;4.50;3.50;;;;;;;0.87;78.90;99582.69;5013703;28;20033;-61
2021/05/08 02:00:41;;;;;;;5.35;3.90;;;;;;;1.06;77.70;99584.91;5013023;28;20034;-62
2021/05/08 02:03:07;;;;;;;6.78;4.00;;;;;;;0.97;77.95;99588.56;5013672;28;20109;-61
2021/05/08 02:05:34;;;;;;;6.22;4.22;;;;;;;0.95;78.17;99589.72;5013073;28;20492;-62
2021/05/08 02:08:02;;;;;;;8.52;4.13;;;;;;;0.95;78.25;99592.38;5013408;28;20046;-62
2021/05/08 02:10:29;;;;;;;4.97;4.00;;;;;;;0.73;78.41;99586.88;5013005;28;20518;-62
2021/05/08 02:12:55;;;;;;;5.57;3.60;;;;;;;0.44;80.43;99590.06;5013381;28;20048;-62
2021/05/08 02:15:20;;;;;;;5.72;4.38;;;;;;;0.39;81.66;99587.94;5013266;28;20205;-62
2021/05/08 02:17:46;;;;;;;5.97;3.90;;;;;;;0.46;80.91;99582.81;5013481;28;20472;-62
2021/05/08 02:20:15;;;;;;;6.75;4.13;;;;;;;0.45;80.82;99581.19;5013114;28;20034;-62
2021/05/08 02:22:41;;;;;;;6.18;4.28;;;;;;;0.52;81.94;99576.84;5013354;28;20044;-62
2021/05/08 02:25:07;;;;;;;5.60;4.18;;;;;;;0.54;81.43;99590.69;5012830;28;20046;-62
2021/05/08 02:27:33;;;;;;;7.25;4.40;;;;;;;0.56;81.35;99583.44;5013318;28;20034;-60
2021/05/08 02:29:58;;;;;;;7.30;4.15;;;;;;;0.56;81.34;99583.44;5013464;28;20084;-60
2021/05/08 02:32:24;;;;;;;4.93;4.03;;;;;;;0.55;81.52;99580.97;5012897;28;20041;-61
2021/05/08 02:34:49;;;;;;;5.72;4.32;;;;;;;0.59;81.77;99583.09;5013449;28;20022;-61
2021/05/08 02:37:15;;;;;;;8.68;3.83;;;;;;;0.49;81.39;99571.09;5012788;28;20373;-60
2021/05/08 02:39:40;;;;;;;6.10;3.85;;;;;;;0.50;82.29;99578.00;4995602;28;20030;-60
2021/05/08 02:42:06;;;;;;;6.63;4.18;;;;;;;0.45;81.37;99570.63;5012748;28;20049;-60
2021/05/08 02:44:31;;;;;;;7.53;4.95;;;;;;;0.42;83.04;99570.94;4995536;28;20468;-60
2021/05/08 02:46:57;;;;;;;6.70;4.10;;;;;;;0.31;81.76;99566.03;5012658;28;20038;-60
2021/05/08 02:49:22;;;;;;;6.53;4.30;;;;;;;0.22;82.08;99567.84;5013149;28;20029;-60
2021/05/08 02:51:47;;;;;;;6.95;4.70;;;;;;;0.27;82.95;99575.25;5012709;28;20038;-60
2021/05/08 02:54:13;;;;;;;6.20;4.70;;;;;;;0.42;82.99;99576.22;5013025;28;20092;-60
2021/05/08 02:56:38;;;;;;;6.90;4.30;;;;;;;0.33;81.59;99570.16;5012427;28;20046;-60
2021/05/08 02:59:04;;;;;;;8.15;4.30;;;;;;;0.29;83.49;99568.00;5011790;28;20029;-60
2021/05/08 03:01:29;;;;;;;5.90;4.40;;;;;;;0.13;82.15;99580.22;4994905;28;20037;-60
2021/05/08 03:03:55;;;;;;;7.95;4.60;;;;;;;0.04;82.29;99583.03;5012828;28;20025;-60
2021/05/08 03:06:20;;;;;;;7.45;4.70;;;;;;;-0.09;82.70;99573.00;5010853;28;20034;-60
2021/05/08 03:08:45;;;;;;;6.18;4.32;;;;;;;-0.07;82.52;99573.66;5012832;28;20046;-60
2021/05/08 03:11:11;;;;;;;5.20;4.43;;;;;;;0.01;82.80;99578.09;5012493;28;20144;-60
2021/05/08 03:13:36;;;;;;;6.53;5.07;;;;;;;0.00;82.52;99566.75;5012861;28;20040;-61
2021/05/08 03:16:02;;;;;;;7.40;4.75;;;;;;;-0.14;82.61;99560.31;5012545;28;20041;-64
2021/05/08 03:18:27;;;;;;;6.28;4.57;;;;;;;-0.31;83.37;99564.75;5013016;28;20029;-60
2021/05/08 03:20:53;;;;;;;6.80;5.32;;;;;;;-0.12;84.07;99565.44;4995074;28;20481;-60
2021/05/08 03:23:18;;;;;;;8.00;5.85;;;;;;;-0.11;84.25;99553.88;4995086;28;20022;-62
2021/05/08 03:25:43;;;;;;;7.05;5.32;;;;;;;-0.13;83.60;99572.50;5012329;28;20049;-62
2021/05/08 03:28:09;;;;;;;6.55;5.30;;;;;;;-0.17;83.84;99570.38;5012556;28;20036;-60
2021/05/08 03:30:34;;;;;;;8.90;5.28;;;;;;;-0.19;83.72;99559.16;5012314;28;20050;-60
2021/05/08 03:33:00;;;;;;;7.05;5.47;;;;;;;-0.18;83.48;99560.81;5012546;28;20026;-61
2021/05/08 03:35:25;;;;;;;6.85;5.53;;;;;;;-0.17;84.83;99554.56;5012196;28;20038;-60
2021/05/08 03:37:51;;;;;;;7.43;5.03;;;;;;;-0.13;83.96;99558.50;5011331;28;20025;-60
2021/05/08 03:40:16;;;;;;;7.57;5.13;;;;;;;-0.13;82.82;99555.88;5012174;28;20029;-62
2021/05/08 03:42:42;;;;;;;5.82;4.53;;;;;;;-0.38;83.23;99550.59;5012469;28;20461;-62
2021/05/08 03:45:08;;;;;;;6.55;5.15;;;;;;;-0.51;83.23;99555.53;5013654;28;20033;-62
2021/05/08 03:47:33;;;;;;;7.68;5.28;;;;;;;-0.54;83.56;99553.22;4998672;28;20136;-60
2021/05/08 03:49:58;;;;;;;7.90;5.28;;;;;;;-0.45;84.42;99552.22;5015956;28;20026;-63
2021/05/08 03:52:24;;;;;;;8.30;5.32;;;;;;;-0.35;83.69;99552.91;5015507;28;20037;-61
2021/05/08 03:54:49;;;;;;;7.15;5.93;;;;;;;-0.13;84.97;99555.88;5015966;28;20037;-60
2021/05/08 03:57:15;;;;;;;8.10;5.57;;;;;;;-0.05;83.08;99563.75;5014157;28;20056;-60
2021/05/08 03:59:40;;;;;;;8.85;5.75;;;;;;;0.06;83.19;99566.06;5015979;28;20025;-60
2021/05/08 04:02:06;;;;;;;8.27;6.07;;;;;;;0.05;82.26;99559.16;5015340;28;20443;-60
2021/05/08 04:04:31;;;;;;;7.80;5.78;;;;;;;0.20;82.06;99556.66;5015764;28;20457;-60
2021/05/08 04:06:56;;;;;;;10.38;6.10;;;;;;;0.73;81.40;99557.84;5015243;28;20481;-60
2021/05/08 04:09:22;;;;;;;9.13;5.45;;;;;;;1.12;78.29;99553.53;5015450;28;20050;-60
2021/05/08 04:11:47;;;;;;;7.80;5.10;;;;;;;2.26;74.58;99557.94;5015002;28;20038;-60
2021/05/08 04:14:13;;;;;;;5.55;4.75;;;;;;;2.87;70.80;99551.66;5015689;28;20033;-60
2021/05/08 04:16:39;;;;;;;7.88;4.60;;;;;;;3.46;67.93;99560.28;5015016;28;20124;-60
2021/05/08 04:19:04;;;;;;;5.72;4.80;;;;;;;4.13;64.85;99557.44;5015620;28;20449;-61
2021/05/08 04:21:30;;;;;;;4.55;3.70;;;;;;;4.67;60.67;99559.44;5015097;28;20057;-61
2021/05/08 04:23:56;;;;;;;7.65;3.70;;;;;;;4.18;62.83;99561.13;5014158;28;20057;-61
2021/05/08 04:26:21;;;;;;;7.03;4.30;;;;;;;4.56;62.58;99557.31;4997378;28;20038;-61
2021/05/08 04:28:47;;;;;;;5.97;3.97;;;;;;;5.33;61.12;99561.53;5015238;28;20380;-61
2021/05/08 04:31:12;;;;;;;8.93;3.67;;;;;;;6.30;55.61;99564.75;5014767;28;20034;-61
2021/05/08 04:33:38;;;;;;;5.10;3.65;;;;;;;5.91;56.92;99566.34;5015346;28;20038;-61
2021/05/08 04:36:04;;;;;;;5.35;3.50;;;;;;;6.55;55.23;99567.56;5014862;28;20037;-61
2021/05/08 04:38:29;;;;;;;5.50;3.22;;;;;;;6.96;52.86;99574.44;5015163;28;20049;-61
2021/05/08 04:40:55;;;;;;;4.18;3.00;;;;;;;6.77;52.63;99570.81;5014640;28;20060;-61
2021/05/08 04:43:20;;;;;;;4.78;3.13;;;;;;;7.59;50.02;99574.56;5014946;28;20499;-61
2021/05/08 04:45:46;;;;;;;6.13;3.35;;;;;;;7.32;51.49;99574.69;5014771;28;20045;-61
2021/05/08 04:48:11;;;;;;;6.72;3.33;;;;;;;5.76;57.71;99562.03;5015189;28;20354;-61
2021/05/08 04:50:37;;;;;;;6.90;3.40;;;;;;;6.80;55.19;99560.53;5014646;28;20034;-62
2021/05/08 04:53:02;;;;;;;6.60;4.05;;;;;;;8.16;51.20;99558.53;5014882;28;20022;-61
2021/05/08 04:55:27;;;;;;;9.95;3.40;;;;;;;9.53;46.05;99563.59;5014150;28;20129;-62
2021/05/08 04:57:53;;;;;;;5.20;3.40;;;;;;;9.80;44.53;99561.38;5013993;28;20103;-61
2021/05/08 05:00:18;;;;;;;6.13;3.38;;;;;;;9.40;45.53;99566.47;5014198;28;20456;-61
2021/05/08 05:02:44;;;;;;;4.75;3.03;;;;;;;8.77;47.58;99563.13;5014783;28;20034;-62
2021/05/08 05:05:10;;;;;;;4.70;3.30;;;;;;;9.75;44.76;99565.78;5013724;28;20036;-62
2021/05/08 05:07:37;;;;;;;5.65;3.40;;;;;;;11.08;41.81;99574.22;5014424;28;20053;-62
2021/05/08 05:10:03;;;;;;;4.15;3.08;;;;;;;10.88;41.44;99570.06;5014028;28;20030;-62
2021/05/08 05:12:28;;;;;;;5.43;3.33;;;;;;;10.81;42.33;99569.38;5014549;28;20457;-62
2021/05/08 05:14:53;;;;;;;5.15;3.20;;;;;;;11.63;40.68;99568.28;4997095;28;20022;-62
2021/05/08 05:17:19;;;;;;;6.65;3.38;;;;;;;12.00;39.87;99573.25;5013885;28;20443;-62
2021/05/08 05:19:44;;;;;;;3.97;3.00;;;;;;;13.04;37.56;99591.47;4996941;28;20054;-62
2021/05/08 05:22:10;;;;;;;5.40;3.33;;;;;;;12.94;38.36;99591.34;5013939;28;20071;-62
2021/05/08 05:24:35;;;;;;;5.80;3.30;;;;;;;13.07;37.45;99595.53;5014186;28;20421;-63
2021/05/08 05:27:00;;;;;;;5.75;3.28;;;;;;;12.46;38.72;99584.75;5013836;28;20030;-62
2021/05/08 05:29:26;;;;;;;5.75;3.10;;;;;;;12.56;38.38;99594.84;5014364;28;20061;-62
2021/05/08 05:31:51;;;;;;;4.22;3.10;;;;;;;11.40;41.34;99593.38;5013881;28;20053;-62
2021/05/08 05:34:18;;;;;;;4.47;3.00;;;;;;;12.97;37.69;99596.22;5014090;28;20030;-63
2021/05/08 05:36:43;;;;;;;5.82;3.28;;;;;;;13.50;37.13;99596.63;5013669;28;20061;-63
2021/05/08 05:39:09;;;;;;;4.80;3.00;;;;;;;13.01;38.31;99601.94;5014002;28;20092;-62
2021/05/08 05:41:34;;;;;;;5.65;2.75;;;;;;;13.13;38.40;99600.75;5013582;28;20053;-63
2021/05/08 05:44:01;;;;;;;6.13;2.80;;;;;;;12.86;38.79;99600.66;5013834;28;20036;-61
2021/05/08 05:46:27;;;;;;;4.53;2.80;;;;;;;11.94;40.36;99593.88;5013354;28;20061;-62
2021/05/08 05:48:52;;;;;;;5.50;3.20;;;;;;;10.94;43.20;99587.91;5013771;28;20030;-62
2021/05/08 05:51:18;;;;;;;8.20;5.43;;;;;;;10.86;43.05;99579.38;5013316;28;20041;-62
2021/05/08 05:53:43;;;;;;;8.00;4.65;;;;;;;12.47;39.85;99586.38;5013667;28;20033;-62
2021/05/08 05:56:08;;;;;;;11.38;7.07;;;;;;;13.53;37.49;99588.88;5013402;28;20453;-62
2021/05/08 05:58:34;;;;;;;12.80;6.65;;;;;;;14.72;35.00;99588.78;4996472;28;20531;-62
2021/05/08 06:00:59;;;;;;;12.20;7.10;;;;;;;15.71;33.23;99588.94;5013268;28;20165;-62
2021/05/08 06:03:25;;;;;;;6.75;4.80;;;;;;;14.54;35.43;99586.53;5012414;28;20038;-61
2021/05/08 06:05:51;;;;;;;6.20;3.60;;;;;;;13.34;38.05;99579.50;5011755;28;20073;-61
2021/05/08 06:08:16;;;;;;;5.72;3.10;;;;;;;12.04;41.32;99588.66;5013029;28;20074;-62
2021/05/08 06:10:42;;;;;;;5.50;2.92;;;;;;;13.15;38.63;99587.88;5013186;28;20038;-61
2021/05/08 06:13:07;;;;;;;3.65;2.78;;;;;;;14.45;35.52;99584.28;5013523;28;20034;-61
2021/05/08 06:15:33;;;;;;;6.75;2.85;;;;;;;14.59;36.36;99589.25;5013092;28;20116;-62
2021/05/08 06:17:58;;;;;;;3.78;2.60;;;;;;;14.84;35.95;99581.31;5013326;28;20026;-61
2021/05/08 06:20:24;;;;;;;3.72;2.50;;;;;;;15.38;35.85;99577.50;4995323;28;20034;-62
2021/05/08 06:22:50;;;;;;;4.90;2.97;;;;;;;16.67;33.26;99575.69;5013276;28;20022;-62
2021/05/08 06:25:15;;;;;;;5.28;2.90;;;;;;;17.01;32.38;99578.59;5012649;28;20026;-62
2021/05/08 06:27:41;;;;;;;7.07;3.05;;;;;;;16.64;32.62;99573.53;5012102;28;20048;-62
2021/05/08 06:30:07;;;;;;;5.40;3.20;;;;;;;16.02;34.48;99576.25;5012795;28;20076;-61
2021/05/08 06:32:32;;;;;;;5.43;3.20;;;;;;;15.74;33.32;99577.59;5013362;28;20060;-62
2021/05/08 06:34:58;;;;;;;4.80;3.10;;;;;;;13.22;39.54;99576.09;5013234;28;20380;-62
2021/05/08 06:37:23;;;;;;;6.00;3.60;;;;;;;13.00;40.76;99576.88;5012829;28;20045;-62
2021/05/08 06:39:49;;;;;;;5.57;3.60;;;;;;;15.34;37.24;99583.69;4995681;28;20033;-61
2021/05/08 06:42:14;;;;;;;4.10;3.17;;;;;;;14.24;39.00;99582.50;5012804;28;20042;-61
2021/05/08 06:44:40;;;;;;;5.95;3.38;;;;;;;14.73;37.24;99578.84;5012988;28;20056;-61
2021/05/08 06:47:05;;;;;;;5.22;3.63;;;;;;;15.96;35.68;99590.88;5012868;28;20243;-62
2021/05/08 06:49:31;;;;;;;4.47;3.10;;;;;;;17.06;33.72;99585.91;5013218;28;20026;-62
2021/05/08 06:51:56;;;;;;;6.45;4.03;;;;;;;17.39;32.58;99597.94;5012645;28;20485;-62
2021/05/08 06:54:21;;;;;;;5.53;3.15;;;;;;;17.54;32.34;99592.44;5012920;28;20445;-62
2021/05/08 06:56:47;;;;;;;4.82;3.50;;;;;;;16.35;34.85;99587.66;5012508;28;20049;-62
2021/05/08 06:59:12;;;;;;;6.45;3.38;;;;;;;16.12;34.99;99583.56;4995672;28;20022;-62
2021/05/08 07:01:38;;;;;;;9.45;4.57;;;;;;;14.54;37.56;99575.72;5011999;28;20056;-62
2021/05/08 07:04:04;;;;;;;6.15;4.10;;;;;;;14.79;37.42;99577.78;5012645;28;20026;-63
2021/05/08 07:06:29;;;;;;;5.35;3.63;;;;;;;15.66;36.31;99581.59;5012616;28;20060;-62
2021/05/08 07:08:55;;;;;;;5.35;3.63;;;;;;;16.67;34.16;99586.50;5012677;28;20038;-62
2021/05/08 07:11:20;;;;;;;6.78;3.38;;;;;;;16.17;35.41;99576.28;5027613;28;20038;-63
2021/05/08 07:13:46;;;;;;;5.55;3.80;;;;;;;17.21;33.15;99581.22;5012833;28;20060;-62
2021/05/08 07:16:11;;;;;;;5.13;3.60;;;;;;;17.55;32.01;99577.00;5012438;28;20092;-62
2021/05/08 07:18:39;;;;;;;6.35;3.60;;;;;;;16.78;33.58;99580.03;4995252;28;20030;-63
2021/05/08 07:21:05;;;;;;;5.60;3.53;;;;;;;16.09;36.24;99581.41;5015459;28;20038;-63
2021/05/08 07:23:30;;;;;;;5.20;3.70;;;;;;;16.37;35.20;99580.03;4998925;28;20374;-62
2021/05/08 07:25:56;;;;;;;6.95;3.67;;;;;;;15.55;36.42;99574.56;5016248;28;20038;-62
2021/05/08 07:28:26;;;;;;;6.82;3.92;;;;;;;14.33;38.75;99564.78;4998953;28;20033;-62
2021/05/08 07:30:53;;;;;;;6.88;3.70;;;;;;;14.04;39.81;99556.19;5016133;28;20038;-62
2021/05/08 07:33:18;;;;;;;7.03;4.05;;;;;;;13.38;41.74;99564.47;5016442;28;20038;-63
2021/05/08 07:35:44;;;;;;;6.30;4.18;;;;;;;13.93;42.00;99558.00;4998412;28;20061;-63
2021/05/08 07:38:10;;;;;;;5.57;3.92;;;;;;;13.15;43.37;99552.03;5016225;28;20465;-62
2021/05/08 07:40:35;;;;;;;6.35;4.18;;;;;;;12.32;45.82;99561.97;5031222;28;20030;-62
2021/05/08 07:43:01;;;;;;;6.18;4.35;;;;;;;12.33;45.58;99545.59;5016559;28;20026;-62
2021/05/08 07:45:27;;;;;;;8.60;4.32;;;;;;;12.04;47.60;99550.25;5030871;28;20112;-62
2021/05/08 07:47:53;;;;;;;8.88;4.05;;;;;;;11.73;48.05;99541.66;5016224;28;20029;-62
2021/05/08 07:50:18;;;;;;;6.18;4.03;;;;;;;11.66;48.76;99533.75;4998086;28;20022;-62
2021/05/08 07:52:44;;;;;;;6.28;4.10;;;;;;;11.57;48.45;99531.69;5015993;28;20068;-62
2021/05/08 07:55:10;;;;;;;6.75;4.35;;;;;;;11.44;48.67;99530.94;5015610;28;20029;-63
2021/05/08 07:57:37;;;;;;;7.10;4.68;;;;;;;11.15;49.42;99531.97;5016140;28;20022;-62
2021/05/08 08:00:06;;;;;;;7.25;4.57;;;;;;;10.84;51.96;99526.00;5015627;28;20117;-61
2021/05/08 08:02:31;;;;;;;6.57;4.50;;;;;;;10.95;52.43;99510.94;5015906;28;20022;-62
2021/05/08 08:04:57;;;;;;;7.28;4.80;;;;;;;11.07;52.79;99518.94;5015703;28;20037;-62
2021/05/08 08:07:22;;;;;;;9.38;4.90;;;;;;;11.74;51.17;99516.41;5015275;28;20059;-64
2021/05/08 08:09:48;;;;;;;8.05;5.03;;;;;;;11.27;52.18;99518.53;5015421;28;20044;-63
2021/05/08 08:12:13;;;;;;;10.05;4.60;;;;;;;11.66;52.22;99500.72;5015109;28;20034;-62
2021/05/08 08:14:38;;;;;;;8.45;4.75;;;;;;;11.16;53.63;99506.78;4998125;28;20022;-62
2021/05/08 08:17:04;;;;;;;7.38;5.15;;;;;;;11.65;52.60;99505.25;5015108;28;20096;-62
2021/05/08 08:19:29;;;;;;;7.95;4.78;;;;;;;11.98;49.84;99508.22;5015519;28;20108;-62
2021/05/08 08:21:56;;;;;;;8.20;5.13;;;;;;;11.95;52.16;99506.03;4997468;28;20169;-64
2021/05/08 08:24:21;;;;;;;8.80;5.03;;;;;;;11.69;52.53;99510.16;5015584;28;20025;-64
2021/05/08 08:26:47;;;;;;;10.25;5.22;;;;;;;12.21;51.19;99500.00;5015034;28;20133;-64
2021/05/08 08:29:12;;;;;;;8.40;5.00;;;;;;;11.73;52.02;99504.06;5015446;28;20033;-64
2021/05/08 08:31:38;;;;;;;7.40;5.28;;;;;;;11.17;54.92;99501.19;5014656;28;20034;-62
2021/05/08 08:34:03;;;;;;;9.50;6.07;;;;;;;11.60;54.22;99505.16;5015440;28;20030;-65
2021/05/08 08:36:28;;;;;;;10.13;6.43;;;;;;;11.70;54.18;99507.22;5014962;28;20037;-64
2021/05/08 08:38:54;;;;;;;10.48;6.70;;;;;;;11.83;54.13;99506.06;5015350;28;20069;-64
2021/05/08 08:41:19;;;;;;;10.88;6.35;;;;;;;12.66;52.44;99509.75;5014805;28;20034;-64
2021/05/08 08:43:46;;;;;;;8.70;5.85;;;;;;;12.50;52.07;99505.22;4997722;28;20385;-64
2021/05/08 08:46:12;;;;;;;7.93;5.15;;;;;;;13.03;51.26;99498.38;4997399;28;20041;-65
2021/05/08 08:48:39;;;;;;;11.52;5.35;;;;;;;14.13;47.06;99499.94;5030240;28;20026;-64
2021/05/08 08:51:04;;;;;;;8.35;5.47;;;;;;;13.77;48.39;99491.56;5013070;28;20057;-63
2021/05/08 08:53:30;;;;;;;12.85;8.23;;;;;;;13.26;50.52;99496.47;5014908;28;20049;-63
2021/05/08 08:55:57;;;;;;;9.52;5.03;;;;;;;13.08;49.88;99489.53;5014823;28;20030;-63
2021/05/08 08:58:29;;;;;;;7.13;5.05;;;;;;;13.19;50.13;99491.28;5030039;28;20030;-63
2021/05/08 09:00:56;;;;;;;7.80;4.97;;;;;;;14.39;46.27;99488.22;5013234;28;20045;-64
2021/05/08 09:03:22;;;;;;;11.23;5.43;;;;;;;14.41;46.66;99479.91;5014355;28;20022;-64
2021/05/08 09:05:47;;;;;;;7.70;4.05;;;;;;;13.98;41.36;99479.91;5013977;28;20448;-64
2021/05/08 09:08:12;;;;;;;9.13;4.13;;;;;;;14.46;40.55;99483.41;5009386;28;20038;-63
2021/05/08 09:10:38;;;;;;;5.47;3.40;;;;;;;12.61;42.95;99474.75;5013898;28;20038;-63
2021/05/08 09:13:04;;;;;;;7.65;3.85;;;;;;;14.24;40.66;99463.88;5014596;28;20030;-63
2021/05/08 09:15:34;;;;;;;5.43;3.40;;;;;;;12.77;41.73;99466.84;5013989;28;20447;-63
2021/05/08 09:18:00;;;;;;;6.25;3.38;;;;;;;13.26;40.48;99469.56;5014417;28;20033;-63
2021/05/08 09:20:41;;;;;;;8.52;3.42;;;;;;;12.75;40.54;99461.72;5014062;28;20034;-63
2021/05/08 09:23:19;;;;;;;5.70;3.85;;;;;;;12.84;39.46;99456.72;5029260;28;20033;-63
2021/05/08 09:26:02;;;;;;;6.20;3.50;;;;;;;13.29;38.16;99459.09;5013972;28;20033;-63
2021/05/08 09:28:28;;;;;;;8.73;3.47;;;;;;;12.77;39.61;99439.97;5014125;28;20464;-63
2021/05/08 09:30:54;;;;;;;21.85;4.22;;;;;;;13.61;38.76;99446.75;5013749;28;20041;-63
2021/05/08 09:33:23;;;;;;;5.88;3.50;;;;;;;13.57;37.17;99441.84;5029352;28;20026;-63
2021/05/08 09:36:14;;;;;;;6.07;3.15;;;;;;;13.55;37.92;99435.94;5013766;28;20399;-63
2021/05/08 09:38:41;;;;;;;5.13;2.80;;;;;;;13.12;38.10;99426.88;5011036;28;20044;-63
2021/05/08 09:41:11;;;;;;;6.28;3.22;;;;;;;13.52;37.82;99414.88;5013450;28;20061;-63
2021/05/08 09:43:37;;;;;;;4.55;3.00;;;;;;;13.36;37.28;99413.16;5013349;28;20030;-63
2021/05/08 09:46:03;;;;;;;5.88;3.20;;;;;;;13.68;36.45;99412.31;5013543;28;20612;-63
2021/05/08 09:48:32;;;;;;;4.97;3.15;;;;;;;14.00;36.12;99414.94;5013927;28;20049;-63
2021/05/08 09:51:17;;;;;;;7.75;3.15;;;;;;;14.51;34.12;99420.63;5013255;28;20049;-63
2021/05/08 09:53:42;;;;;;;7.65;3.40;;;;;;;13.91;36.93;99405.75;4994349;28;20111;-63
2021/05/08 09:56:33;;;;;;;5.57;3.00;;;;;;;14.59;34.10;99412.03;4993715;28;20398;-63
2021/05/08 09:59:24;;;;;;;6.22;3.00;;;;;;;14.51;35.86;99399.03;4994131;28;20049;-63
2021/05/08 10:02:02;;;;;;;4.25;2.58;;;;;;;14.20;34.68;99404.31;4993458;28;20043;-63
2021/05/08 10:04:30;;;;;;;6.25;2.60;;;;;;;15.30;36.05;99403.31;4993834;28;20538;-64
2021/05/08 10:07:12;;;;;;;5.97;2.90;;;;;;;15.55;34.33;99398.97;4993321;28;20039;-64
2021/05/08 10:09:39;;;;;;;4.55;2.60;;;;;;;15.26;34.02;99388.69;4993732;28;20076;-63
2021/05/08 10:12:06;;;;;;;5.03;2.70;;;;;;;15.19;33.48;99385.47;4993261;28;20089;-63
2021/05/08 10:14:33;;;;;;;4.55;2.60;;;;;;;16.36;32.11;99383.69;4993965;28;20030;-63
2021/05/08 10:16:59;;;;;;;5.93;2.85;;;;;;;16.37;32.28;99390.72;4993269;28;20042;-64
2021/05/08 10:19:25;;;;;;;7.18;2.80;;;;;;;14.92;33.57;99372.19;5008821;28;20118;-63
2021/05/08 10:21:50;;;;;;;5.00;2.47;;;;;;;15.28;33.08;99377.66;4975769;28;20545;-63
2021/05/08 10:24:15;;;;;;;4.00;2.40;;;;;;;14.75;33.16;99375.16;4992455;28;20121;-63
2021/05/08 10:26:41;;;;;;;2.95;2.10;;;;;;;14.69;34.04;99376.19;4975770;28;20039;-63
2021/05/08 10:29:06;;;;;;;3.88;2.40;;;;;;;15.30;32.61;99370.06;4993642;28;20073;-63
2021/05/08 10:31:33;;;;;;;6.43;2.97;;;;;;;14.94;32.79;99363.84;4993121;28;20492;-63
2021/05/08 10:33:58;;;;;;;5.20;2.30;;;;;;;14.98;32.43;99351.44;4976062;28;20030;-63
2021/05/08 10:36:46;;;;;;;4.00;2.30;;;;;;;15.98;32.55;99355.44;4993049;28;20481;-64
2021/05/08 10:39:11;;;;;;;4.05;2.22;;;;;;;15.56;31.66;99362.78;4993397;28;20477;-64
2021/05/08 10:41:52;;;;;;;6.57;2.28;;;;;;;14.42;34.60;99360.97;4993075;28;20038;-64
2021/05/08 10:44:43;;;;;;;3.85;2.20;;;;;;;14.49;34.83;99351.84;4993439;28;20026;-64
2021/05/08 10:47:08;;;;;;;;;;;;;;;14.37;35.32;99347.47;4993364;28;20038;-64
2021/05/08 10:49:34;;;;;;;4.68;2.20;;;;;;;14.48;34.24;99350.19;4993397;28;19914;-64
2021/05/08 10:52:01;;;;;;;4.40;2.20;;;;;;;14.46;34.29;99343.19;5008195;28;20053;-63
2021/05/08 10:54:44;;;;;;;7.25;2.40;;;;;;;15.04;34.57;99347.66;4993767;28;20035;-63
2021/05/08 10:57:20;;;;;;;5.70;2.90;;;;;;;15.60;33.01;99344.94;4997064;28;20049;-63
2021/05/08 11:00:09;;;;;;;5.55;2.13;;;;;;;15.55;33.68;99347.66;4997348;28;20018;-63
2021/05/08 11:02:41;;;;;;;4.97;1.95;;;;;;;14.18;34.79;99324.78;4997202;28;20081;-64
2021/05/08 11:05:26;;;;;;;4.13;2.40;;;;;;;14.23;34.49;99327.50;4996858;28;20125;-63
2021/05/08 11:07:51;;;;;;;4.90;2.20;;;;;;;14.68;34.73;99307.16;5004683;28;20042;-63
2021/05/08 11:10:35;;;;;;;3.20;2.00;;;;;;;15.24;35.49;99301.75;5016327;28;20025;-63
2021/05/08 11:13:14;;;;;;;3.15;1.85;;;;;;;15.68;34.93;99311.97;5017009;28;20026;-64
2021/05/08 11:15:52;;;;;;;3.95;2.20;;;;;;;15.10;33.68;99304.22;5016505;28;20046;-64
2021/05/08 11:18:32;;;;;;;3.92;2.20;;;;;;;15.18;33.25;99310.94;5016643;28;20026;-64
2021/05/08 11:21:07;;;;;;;4.03;1.92;;;;;;;14.89;35.14;99314.16;5016150;28;20101;-64
2021/05/08 11:23:46;;;;;;;3.97;2.00;;;;;;;15.41;35.80;99319.56;5015759;28;20076;-64
2021/05/08 11:26:23;;;;;;;4.25;2.60;;;;;;;16.39;33.32;99296.56;5016211;28;20475;-64
2021/05/08 11:28:58;;;;;;;2.20;1.77;;;;;;;15.40;34.60;99301.75;5016422;28;20026;-64
2021/05/08 11:31:25;;;;;;;4.38;2.35;;;;;;;15.73;34.87;99303.06;5014778;28;20041;-64
2021/05/08 11:33:50;;;;;;;3.42;2.20;;;;;;;15.57;34.18;99296.84;5016282;28;20403;-64
2021/05/08 11:36:16;;;;;;;3.25;2.20;;;;;;;15.31;34.83;99294.19;5016111;28;20046;-64